sensor_id;sensor_type;location;lat;lon;timestamp;pressure;altitude;pressure_sealevel;temperature;humidity
7836;BME280;3963;42.658;23.298;2023-05-10T00:00:44;145219.28;;;7.97;100.00
7836;BME280;3963;42.658;23.298;2023-05-10T00:03:10;145209.16;;;7.93;100.00
7836;BME280;3963;42.658;23.298;2023-05-10T00:05:37;144850.81;;;7.85;100.00
7836;BME280;3963;42.658;23.298;2023-05-10T00:08:04;144516.50;;;7.87;100.00
7836;BME280;3963;42.658;23.298;2023-05-10T00:10:31;144505.19;;;7.82;100.00
7836;BME280;3963;42.658;23.298;2023-05-10T00:12:57;144167.16;;;7.82;100.00
7836;BME280;3963;42.658;23.298;2023-05-10T00:15:26;144172.16;;;7.84;100.00
7836;BME280;3963;42.658;23.298;2023-05-10T00:17:52;143827.91;;;7.82;100.00
7836;BME280;3963;42.658;23.298;2023-05-10T00:20:19;143831.66;;;7.83;100.00
7836;BME280;3963;42.658;23.298;2023-05-10T00:22:46;143472.44;;;7.74;100.00
7836;BME280;3963;42.658;23.298;2023-05-10T00:25:13;143471.16;;;7.74;100.00
7836;BME280;3963;42.658;23.298;2023-05-10T00:27:40;143432.44;;;7.58;100.00
7836;BME280;3963;42.658;23.298;2023-05-10T00:30:07;143452.44;;;7.66;100.00
7836;BME280;3963;42.658;23.298;2023-05-10T00:32:36;143444.94;;;7.63;100.00
7836;BME280;3963;42.658;23.298;2023-05-10T00:35:06;143433.66;;;7.59;100.00
7836;BME280;3963;42.658;23.298;2023-05-10T00:37:32;143433.66;;;7.59;100.00
7836;BME280;3963;42.658;23.298;2023-05-10T00:39:59;143090.88;;;7.57;100.00
7836;BME280;3963;42.658;23.298;2023-05-10T00:42:26;142403.03;;;7.52;100.00
7836;BME280;3963;42.658;23.298;2023-05-10T00:44:53;142064.13;;;7.51;100.00
7836;BME280;3963;42.658;23.298;2023-05-10T00:47:20;141716.59;;;7.47;100.00
7836;BME280;3963;42.658;23.298;2023-05-10T00:49:49;142064.13;;;7.51;100.00
7836;BME280;3963;42.658;23.298;2023-05-10T00:52:16;141722.75;;;7.50;100.00
7836;BME280;3963;42.658;23.298;2023-05-10T00:54:43;142059.19;;;7.49;100.00
7836;BME280;3963;42.658;23.298;2023-05-10T00:57:10;141377.78;;;7.47;100.00
7836;BME280;3963;42.658;23.298;2023-05-10T00:59:37;141040.25;;;7.47;100.00
7836;BME280;3963;42.658;23.298;2023-05-10T01:02:04;140696.63;;;7.44;100.00
7836;BME280;3963;42.658;23.298;2023-05-10T01:04:31;139681.97;;;7.43;100.00
7836;BME280;3963;42.658;23.298;2023-05-10T01:07:00;139336.09;;;7.40;100.00
7836;BME280;3963;42.658;23.298;2023-05-10T01:09:27;138665.13;;;7.41;100.00
7836;BME280;3963;42.658;23.298;2023-05-10T01:11:54;137312.78;;;7.40;100.00
7836;BME280;3963;42.658;23.298;2023-05-10T01:14:21;136297.94;;;7.38;100.00
7836;BME280;3963;42.658;23.298;2023-05-10T01:16:49;135589.66;;;7.23;100.00
7836;BME280;3963;42.658;23.298;2023-05-10T01:19:19;134951.31;;;7.39;100.00
7836;BME280;3963;42.658;23.298;2023-05-10T01:21:53;135282.34;;;7.36;100.00
7836;BME280;3963;42.658;23.298;2023-05-10T01:24:59;134618.00;;;7.40;100.00
7836;BME280;3963;42.658;23.298;2023-05-10T01:28:13;133937.28;;;7.37;100.00
7836;BME280;3963;42.658;23.298;2023-05-10T01:31:04;134275.28;;;7.38;100.00
7836;BME280;3963;42.658;23.298;2023-05-10T01:33:35;133592.34;;;7.34;100.00
7836;BME280;3963;42.658;23.298;2023-05-10T01:36:10;133252.13;;;7.32;100.00
7836;BME280;3963;42.658;23.298;2023-05-10T01:38:43;134593.28;;;7.30;100.00
7836;BME280;3963;42.658;23.298;2023-05-10T01:41:19;132900.41;;;7.26;100.00
7836;BME280;3963;42.658;23.298;2023-05-10T01:43:57;129844.81;;;7.13;100.00
7836;BME280;3963;42.658;23.298;2023-05-10T01:46:28;128159.38;;;7.11;100.00
7836;BME280;3963;42.658;23.298;2023-05-10T01:48:58;125820.66;;;7.17;100.00
7836;BME280;3963;42.658;23.298;2023-05-10T01:51:31;124811.97;;;7.17;100.00
7836;BME280;3963;42.658;23.298;2023-05-10T01:54:01;125147.78;;;7.17;100.00
7836;BME280;3963;42.658;23.298;2023-05-10T01:56:30;124139.38;;;7.16;100.00
7836;BME280;3963;42.658;23.298;2023-05-10T01:58:59;124132.84;;;7.13;100.00
7836;BME280;3963;42.658;23.298;2023-05-10T02:01:30;123790.66;;;7.10;100.00
7836;BME280;3963;42.658;23.298;2023-05-10T02:03:59;120428.09;;;7.07;100.00
7836;BME280;3963;42.658;23.298;2023-05-10T02:06:28;117069.13;;;7.03;100.00
7836;BME280;3963;42.658;23.298;2023-05-10T02:08:55;114055.44;;;7.03;100.00
7836;BME280;3963;42.658;23.298;2023-05-10T02:11:23;110378.41;;;7.05;100.00
7836;BME280;3963;42.658;23.298;2023-05-10T02:13:51;109044.09;;;7.06;100.00
7836;BME280;3963;42.658;23.298;2023-05-10T02:16:22;107367.59;;;7.03;100.00
7836;BME280;3963;42.658;23.298;2023-05-10T02:18:51;106369.25;;;7.05;100.00
7836;BME280;3963;42.658;23.298;2023-05-10T02:21:21;98682.97;;;6.98;100.00
7836;BME280;3963;42.658;23.298;2023-05-10T02:23:52;90351.53;;;6.91;100.00
7836;BME280;3963;42.658;23.298;2023-05-10T02:26:21;81007.69;;;6.81;100.00
7836;BME280;3963;42.658;23.298;2023-05-10T02:28:50;71442.38;;;6.70;100.00
7836;BME280;3963;42.658;23.298;2023-05-10T02:31:18;63072.00;;;6.51;100.00
7836;BME280;3963;42.658;23.298;2023-05-10T02:33:46;62749.78;;;6.41;100.00
7836;BME280;3963;42.658;23.298;2023-05-10T02:36:13;61991.97;;;6.33;100.00
7836;BME280;3963;42.658;23.298;2023-05-10T02:38:43;61376.72;;;6.21;100.00
7836;BME280;3963;42.658;23.298;2023-05-10T02:41:12;61165.66;;;6.19;100.00
7836;BME280;3963;42.658;23.298;2023-05-10T02:43:39;61090.53;;;6.11;100.00
7836;BME280;3963;42.658;23.298;2023-05-10T02:46:07;61366.03;;;6.02;100.00
7836;BME280;3963;42.658;23.298;2023-05-10T02:48:34;62052.34;;;5.99;100.00
7836;BME280;3963;42.658;23.298;2023-05-10T02:51:05;63155.97;;;6.02;100.00
7836;BME280;3963;42.658;23.298;2023-05-10T02:53:36;63896.31;;;6.01;100.00
7836;BME280;3963;42.658;23.298;2023-05-10T02:56:11;64626.88;;;6.03;100.00
7836;BME280;3963;42.658;23.298;2023-05-10T02:58:39;65332.69;;;6.04;100.00
7836;BME280;3963;42.658;23.298;2023-05-10T03:01:06;64552.00;;;6.05;100.00
7836;BME280;3963;42.658;23.298;2023-05-10T03:03:34;65043.91;;;6.08;100.00
7836;BME280;3963;42.658;23.298;2023-05-10T03:06:02;64835.50;;;6.12;100.00
7836;BME280;3963;42.658;23.298;2023-05-10T03:08:29;64667.88;;;6.10;100.00
7836;BME280;3963;42.658;23.298;2023-05-10T03:11:08;64238.09;;;6.15;100.00
7836;BME280;3963;42.658;23.298;2023-05-10T03:13:39;63647.59;;;6.13;100.00
7836;BME280;3963;42.658;23.298;2023-05-10T03:16:15;62901.56;;;5.79;100.00
7836;BME280;3963;42.658;23.298;2023-05-10T03:18:44;62822.81;;;6.15;100.00
7836;BME280;3963;42.658;23.298;2023-05-10T03:21:17;63219.88;;;6.18;100.00
7836;BME280;3963;42.658;23.298;2023-05-10T03:23:49;62663.88;;;6.15;100.00
7836;BME280;3963;42.658;23.298;2023-05-10T03:26:23;62426.78;;;6.22;100.00
7836;BME280;3963;42.658;23.298;2023-05-10T03:28:51;62504.50;;;6.22;100.00
7836;BME280;3963;42.658;23.298;2023-05-10T03:31:19;62181.59;;;6.19;100.00
7836;BME280;3963;42.658;23.298;2023-05-10T03:33:46;61932.84;;;6.22;100.00
7836;BME280;3963;42.658;23.298;2023-05-10T03:36:14;61797.63;;;6.23;100.00
7836;BME280;3963;42.658;23.298;2023-05-10T03:38:41;61467.66;;;6.20;100.00
7836;BME280;3963;42.658;23.298;2023-05-10T03:41:08;61375.25;;;6.22;100.00
7836;BME280;3963;42.658;23.298;2023-05-10T03:43:36;61081.16;;;6.24;100.00
7836;BME280;3963;42.658;23.298;2023-05-10T03:46:04;60888.88;;;6.10;100.00
7836;BME280;3963;42.658;23.298;2023-05-10T03:48:32;60648.72;;;6.26;100.00
7836;BME280;3963;42.658;23.298;2023-05-10T03:50:58;60456.97;;;6.27;100.00
7836;BME280;3963;42.658;23.298;2023-05-10T03:53:25;60327.31;;;6.26;100.00
7836;BME280;3963;42.658;23.298;2023-05-10T03:55:52;60238.47;;;6.10;100.00
7836;BME280;3963;42.658;23.298;2023-05-10T03:58:19;60154.91;;;6.23;100.00
7836;BME280;3963;42.658;23.298;2023-05-10T04:00:47;59989.00;;;6.07;100.00
7836;BME280;3963;42.658;23.298;2023-05-10T04:03:14;59864.50;;;6.26;100.00
7836;BME280;3963;42.658;23.298;2023-05-10T04:05:40;59782.91;;;6.29;100.00
7836;BME280;3963;42.658;23.298;2023-05-10T04:08:07;59754.63;;;6.29;100.00
7836;BME280;3963;42.658;23.298;2023-05-10T04:10:34;59824.16;;;6.31;100.00
7836;BME280;3963;42.658;23.298;2023-05-10T04:13:01;59824.16;;;6.31;100.00
7836;BME280;3963;42.658;23.298;2023-05-10T04:15:28;59756.75;;;6.31;100.00
7836;BME280;3963;42.658;23.298;2023-05-10T04:17:56;59759.44;;;6.33;100.00
7836;BME280;3963;42.658;23.298;2023-05-10T04:20:23;59798.97;;;6.32;100.00
7836;BME280;3963;42.658;23.298;2023-05-10T04:22:50;59733.50;;;6.28;100.00
7836;BME280;3963;42.658;23.298;2023-05-10T04:25:17;59861.22;;;6.32;100.00
7836;BME280;3963;42.658;23.298;2023-05-10T04:27:44;59906.97;;;6.32;100.00
7836;BME280;3963;42.658;23.298;2023-05-10T04:30:11;59909.66;;;6.34;100.00
7836;BME280;3963;42.658;23.298;2023-05-10T04:32:38;59930.66;;;6.32;100.00
7836;BME280;3963;42.658;23.298;2023-05-10T04:35:07;59905.63;;;6.35;100.00
7836;BME280;3963;42.658;23.298;2023-05-10T04:37:35;59949.44;;;6.38;100.00
7836;BME280;3963;42.658;23.298;2023-05-10T04:40:02;59950.94;;;6.37;100.00
7836;BME280;3963;42.658;23.298;2023-05-10T04:42:29;60052.31;;;6.38;100.00
7836;BME280;3963;42.658;23.298;2023-05-10T04:44:56;59967.59;;;6.40;100.00
7836;BME280;3963;42.658;23.298;2023-05-10T04:47:23;59935.13;;;6.39;100.00
7836;BME280;3963;42.658;23.298;2023-05-10T04:49:50;60075.19;;;6.42;100.00
7836;BME280;3963;42.658;23.298;2023-05-10T04:52:19;59981.66;;;6.44;100.00
7836;BME280;3963;42.658;23.298;2023-05-10T04:54:46;59880.00;;;6.47;100.00
7836;BME280;3963;42.658;23.298;2023-05-10T04:57:12;59895.53;;;6.50;100.00
7836;BME280;3963;42.658;23.298;2023-05-10T04:59:40;59857.34;;;6.57;100.00
7836;BME280;3963;42.658;23.298;2023-05-10T05:02:06;59787.59;;;6.62;100.00
7836;BME280;3963;42.658;23.298;2023-05-10T05:04:33;59684.94;;;6.67;100.00
7836;BME280;3963;42.658;23.298;2023-05-10T05:07:00;59831.53;;;6.77;100.00
7836;BME280;3963;42.658;23.298;2023-05-10T05:09:29;59685.41;;;6.77;100.00
7836;BME280;3963;42.658;23.298;2023-05-10T05:11:57;59700.41;;;6.79;100.00
7836;BME280;3963;42.658;23.298;2023-05-10T05:14:24;59675.66;;;6.78;100.00
7836;BME280;3963;42.658;23.298;2023-05-10T05:16:51;59666.97;;;6.79;100.00
7836;BME280;3963;42.658;23.298;2023-05-10T05:19:18;59723.28;;;6.84;100.00
7836;BME280;3963;42.658;23.298;2023-05-10T05:21:45;59755.75;;;6.85;100.00
7836;BME280;3963;42.658;23.298;2023-05-10T05:24:12;59825.47;;;6.90;100.00
7836;BME280;3963;42.658;23.298;2023-05-10T05:26:43;59890.25;;;6.88;100.00
7836;BME280;3963;42.658;23.298;2023-05-10T05:29:09;60050.47;;;6.91;100.00
7836;BME280;3963;42.658;23.298;2023-05-10T05:31:36;60139.22;;;6.95;100.00
7836;BME280;3963;42.658;23.298;2023-05-10T05:34:03;59945.91;;;6.90;100.00
7836;BME280;3963;42.658;23.298;2023-05-10T05:36:29;59945.66;;;6.85;100.00
7836;BME280;3963;42.658;23.298;2023-05-10T05:38:56;60277.25;;;6.87;100.00
7836;BME280;3963;42.658;23.298;2023-05-10T05:41:24;60322.34;;;6.83;100.00
7836;BME280;3963;42.658;23.298;2023-05-10T05:43:52;60420.81;;;6.77;100.00
7836;BME280;3963;42.658;23.298;2023-05-10T05:46:19;60426.41;;;6.58;100.00
7836;BME280;3963;42.658;23.298;2023-05-10T05:48:46;60827.91;;;6.84;100.00
7836;BME280;3963;42.658;23.298;2023-05-10T05:51:13;60644.47;;;6.81;100.00
7836;BME280;3963;42.658;23.298;2023-05-10T05:53:40;60635.25;;;6.82;100.00
7836;BME280;3963;42.658;23.298;2023-05-10T05:56:06;60485.44;;;6.82;100.00
7836;BME280;3963;42.658;23.298;2023-05-10T05:58:34;60347.28;;;6.78;100.00
7836;BME280;3963;42.658;23.298;2023-05-10T06:01:02;60385.75;;;6.85;100.00
7836;BME280;3963;42.658;23.298;2023-05-10T06:03:31;60339.97;;;6.85;100.00
7836;BME280;3963;42.658;23.298;2023-05-10T06:05:59;60198.41;;;6.85;100.00
7836;BME280;3963;42.658;23.298;2023-05-10T06:08:26;60114.16;;;6.88;100.00
7836;BME280;3963;42.658;23.298;2023-05-10T06:10:52;60357.47;;;6.94;100.00
7836;BME280;3963;42.658;23.298;2023-05-10T06:13:19;60292.84;;;6.89;100.00
7836;BME280;3963;42.658;23.298;2023-05-10T06:15:46;60447.97;;;6.92;100.00
7836;BME280;3963;42.658;23.298;2023-05-10T06:18:14;60377.00;;;7.03;100.00
7836;BME280;3963;42.658;23.298;2023-05-10T06:20:41;60302.88;;;7.03;100.00
7836;BME280;3963;42.658;23.298;2023-05-10T06:23:08;60154.78;;;6.97;100.00
7836;BME280;3963;42.658;23.298;2023-05-10T06:25:35;60056.31;;;6.94;100.00
7836;BME280;3963;42.658;23.298;2023-05-10T06:28:02;60186.50;;;7.03;100.00
7836;BME280;3963;42.658;23.298;2023-05-10T06:30:29;60163.31;;;7.12;100.00
7836;BME280;3963;42.658;23.298;2023-05-10T06:32:56;60019.81;;;7.15;100.00
7836;BME280;3963;42.658;23.298;2023-05-10T06:35:24;60033.72;;;7.26;100.00
7836;BME280;3963;42.658;23.298;2023-05-10T06:37:51;59958.38;;;7.23;100.00
7836;BME280;3963;42.658;23.298;2023-05-10T06:40:18;59853.22;;;7.21;100.00
7836;BME280;3963;42.658;23.298;2023-05-10T06:42:45;59895.19;;;7.27;100.00
7836;BME280;3963;42.658;23.298;2023-05-10T06:45:12;59830.72;;;7.24;100.00
7836;BME280;3963;42.658;23.298;2023-05-10T06:47:40;59814.81;;;7.26;100.00
7836;BME280;3963;42.658;23.298;2023-05-10T06:50:07;59763.97;;;7.29;100.00
7836;BME280;3963;42.658;23.298;2023-05-10T06:52:35;59727.41;;;7.29;100.00
7836;BME280;3963;42.658;23.298;2023-05-10T06:55:03;59817.56;;;7.41;100.00
7836;BME280;3963;42.658;23.298;2023-05-10T06:57:30;59761.56;;;7.44;100.00
7836;BME280;3963;42.658;23.298;2023-05-10T06:59:56;59715.97;;;7.49;100.00
7836;BME280;3963;42.658;23.298;2023-05-10T07:02:23;59727.03;;;7.55;100.00
7836;BME280;3963;42.658;23.298;2023-05-10T07:04:50;59636.22;;;7.52;100.00
7836;BME280;3963;42.658;23.298;2023-05-10T07:07:18;59575.59;;;7.43;100.00
7836;BME280;3963;42.658;23.298;2023-05-10T07:09:46;59598.88;;;7.46;100.00
7836;BME280;3963;42.658;23.298;2023-05-10T07:12:13;59620.97;;;7.45;100.00
7836;BME280;3963;42.658;23.298;2023-05-10T07:14:40;59631.50;;;7.50;100.00
7836;BME280;3963;42.658;23.298;2023-05-10T07:17:06;59615.38;;;7.47;100.00
7836;BME280;3963;42.658;23.298;2023-05-10T07:19:33;59573.13;;;7.46;100.00
7836;BME280;3963;42.658;23.298;2023-05-10T07:22:01;59579.00;;;7.51;100.00
7836;BME280;3963;42.658;23.298;2023-05-10T07:24:27;59574.50;;;7.54;100.00
7836;BME280;3963;42.658;23.298;2023-05-10T07:26:56;59511.28;;;7.46;100.00
7836;BME280;3963;42.658;23.298;2023-05-10T07:29:23;59535.03;;;7.46;100.00
7836;BME280;3963;42.658;23.298;2023-05-10T07:31:49;59620.66;;;7.49;100.00
7836;BME280;3963;42.658;23.298;2023-05-10T07:34:16;59548.41;;;7.47;100.00
7836;BME280;3963;42.658;23.298;2023-05-10T07:36:43;59521.91;;;7.41;100.00
7836;BME280;3963;42.658;23.298;2023-05-10T07:39:10;59531.81;;;7.43;100.00
7836;BME280;3963;42.658;23.298;2023-05-10T07:41:36;59568.50;;;7.46;100.00
7836;BME280;3963;42.658;23.298;2023-05-10T07:44:06;59581.59;;;7.51;100.00
7836;BME280;3963;42.658;23.298;2023-05-10T07:46:32;59526.84;;;7.48;100.00
7836;BME280;3963;42.658;23.298;2023-05-10T07:48:59;59560.56;;;7.53;100.00
7836;BME280;3963;42.658;23.298;2023-05-10T07:51:26;59624.84;;;7.63;100.00
7836;BME280;3963;42.658;23.298;2023-05-10T07:53:53;59638.19;;;7.73;100.00
7836;BME280;3963;42.658;23.298;2023-05-10T07:56:21;59511.06;;;7.65;100.00
7836;BME280;3963;42.658;23.298;2023-05-10T07:58:49;59507.63;;;7.57;100.00
7836;BME280;3963;42.658;23.298;2023-05-10T08:01:17;59507.63;;;7.69;100.00
7836;BME280;3963;42.658;23.298;2023-05-10T08:03:44;59560.44;;;7.75;100.00
7836;BME280;3963;42.658;23.298;2023-05-10T08:06:11;59516.28;;;7.79;100.00
7836;BME280;3963;42.658;23.298;2023-05-10T08:08:38;59513.19;;;7.79;100.00
7836;BME280;3963;42.658;23.298;2023-05-10T08:11:05;59556.47;;;7.91;100.00
7836;BME280;3963;42.658;23.298;2023-05-10T08:13:31;59518.09;;;7.98;100.00
7836;BME280;3963;42.658;23.298;2023-05-10T08:15:58;59462.03;;;7.89;100.00
7836;BME280;3963;42.658;23.298;2023-05-10T08:18:27;59454.22;;;7.87;100.00
7836;BME280;3963;42.658;23.298;2023-05-10T08:20:54;59415.09;;;7.89;100.00
7836;BME280;3963;42.658;23.298;2023-05-10T08:23:20;59436.38;;;7.92;100.00
7836;BME280;3963;42.658;23.298;2023-05-10T08:25:47;59460.06;;;8.04;100.00
7836;BME280;3963;42.658;23.298;2023-05-10T08:28:14;59487.75;;;8.13;100.00
7836;BME280;3963;42.658;23.298;2023-05-10T08:30:40;59455.84;;;8.15;100.00
7836;BME280;3963;42.658;23.298;2023-05-10T08:33:07;59455.22;;;8.12;100.00
7836;BME280;3963;42.658;23.298;2023-05-10T08:35:36;59492.47;;;8.15;100.00
7836;BME280;3963;42.658;23.298;2023-05-10T08:38:02;59574.34;;;8.24;100.00
7836;BME280;3963;42.658;23.298;2023-05-10T08:40:29;59563.72;;;8.17;100.00
7836;BME280;3963;42.658;23.298;2023-05-10T08:43:05;59466.22;;;8.03;100.00
7836;BME280;3963;42.658;23.298;2023-05-10T08:45:35;59552.88;;;8.04;100.00
7836;BME280;3963;42.658;23.298;2023-05-10T08:48:05;59642.69;;;8.18;100.00
7836;BME280;3963;42.658;23.298;2023-05-10T08:50:37;59644.63;;;8.27;100.00
7836;BME280;3963;42.658;23.298;2023-05-10T08:53:06;59600.91;;;8.06;100.00
7836;BME280;3963;42.658;23.298;2023-05-10T08:55:33;59587.59;;;7.96;100.00
7836;BME280;3963;42.658;23.298;2023-05-10T08:58:02;59676.97;;;7.88;100.00
7836;BME280;3963;42.658;23.298;2023-05-10T09:00:28;59684.59;;;7.85;100.00
7836;BME280;3963;42.658;23.298;2023-05-10T09:02:57;59895.03;;;7.99;100.00
7836;BME280;3963;42.658;23.298;2023-05-10T09:05:24;59806.19;;;7.95;100.00
7836;BME280;3963;42.658;23.298;2023-05-10T09:07:52;59678.13;;;7.79;100.00
7836;BME280;3963;42.658;23.298;2023-05-10T09:10:19;59762.09;;;7.78;100.00
7836;BME280;3963;42.658;23.298;2023-05-10T09:12:46;59762.09;;;7.78;100.00
7836;BME280;3963;42.658;23.298;2023-05-10T09:15:15;59801.63;;;7.86;100.00
7836;BME280;3963;42.658;23.298;2023-05-10T09:17:42;59767.47;;;7.83;100.00
7836;BME280;3963;42.658;23.298;2023-05-10T09:20:10;59764.22;;;7.68;100.00
7836;BME280;3963;42.658;23.298;2023-05-10T09:22:37;59733.75;;;7.78;100.00
7836;BME280;3963;42.658;23.298;2023-05-10T09:25:07;59660.28;;;7.72;100.00
7836;BME280;3963;42.658;23.298;2023-05-10T09:27:34;59769.75;;;7.88;100.00
7836;BME280;3963;42.658;23.298;2023-05-10T09:30:01;59843.41;;;8.08;100.00
7836;BME280;3963;42.658;23.298;2023-05-10T09:32:38;59843.66;;;8.25;100.00
7836;BME280;3963;42.658;23.298;2023-05-10T09:35:09;59715.13;;;8.23;100.00
7836;BME280;3963;42.658;23.298;2023-05-10T09:37:36;59648.06;;;8.23;100.00
7836;BME280;3963;42.658;23.298;2023-05-10T09:40:10;59594.31;;;8.21;100.00
7836;BME280;3963;42.658;23.298;2023-05-10T09:42:38;59557.16;;;8.20;100.00
7836;BME280;3963;42.658;23.298;2023-05-10T09:45:06;59590.38;;;8.13;100.00
7836;BME280;3963;42.658;23.298;2023-05-10T09:47:34;59586.06;;;8.21;100.00
7836;BME280;3963;42.658;23.298;2023-05-10T09:50:01;59564.91;;;8.20;100.00
7836;BME280;3963;42.658;23.298;2023-05-10T09:52:30;59526.00;;;8.15;100.00
7836;BME280;3963;42.658;23.298;2023-05-10T09:54:57;59566.94;;;8.32;100.00
7836;BME280;3963;42.658;23.298;2023-05-10T09:57:25;59545.09;;;8.41;100.00
7836;BME280;3963;42.658;23.298;2023-05-10T09:59:52;59548.63;;;8.51;100.00
7836;BME280;3963;42.658;23.298;2023-05-10T10:02:21;59520.41;;;8.29;100.00
7836;BME280;3963;42.658;23.298;2023-05-10T10:04:49;59505.72;;;8.50;100.00
7836;BME280;3963;42.658;23.298;2023-05-10T10:07:22;59504.97;;;8.56;100.00
7836;BME280;3963;42.658;23.298;2023-05-10T10:09:49;59458.22;;;8.49;100.00
7836;BME280;3963;42.658;23.298;2023-05-10T10:12:16;59526.38;;;8.50;100.00
7836;BME280;3963;42.658;23.298;2023-05-10T10:14:45;59518.41;;;8.57;100.00
7836;BME280;3963;42.658;23.298;2023-05-10T10:17:12;59521.38;;;8.67;100.00
7836;BME280;3963;42.658;23.298;2023-05-10T10:19:39;59433.00;;;8.64;100.00
7836;BME280;3963;42.658;23.298;2023-05-10T10:22:07;59473.09;;;8.60;100.00
7836;BME280;3963;42.658;23.298;2023-05-10T10:24:36;59540.69;;;8.73;100.00
7836;BME280;3963;42.658;23.298;2023-05-10T10:27:09;59493.91;;;8.77;100.00
7836;BME280;3963;42.658;23.298;2023-05-10T10:29:43;59497.41;;;8.88;100.00
7836;BME280;3963;42.658;23.298;2023-05-10T10:32:29;59523.31;;;8.90;100.00
7836;BME280;3963;42.658;23.298;2023-05-10T10:34:57;59487.44;;;8.83;100.00
7836;BME280;3963;42.658;23.298;2023-05-10T10:37:24;59499.53;;;8.90;100.00
7836;BME280;3963;42.658;23.298;2023-05-10T10:40:22;59474.53;;;8.83;100.00
7836;BME280;3963;42.658;23.298;2023-05-10T10:42:49;59472.03;;;8.86;100.00
7836;BME280;3963;42.658;23.298;2023-05-10T10:45:16;59507.53;;;8.83;100.00
7836;BME280;3963;42.658;23.298;2023-05-10T10:47:44;59484.50;;;8.88;100.00
7836;BME280;3963;42.658;23.298;2023-05-10T10:50:11;59444.78;;;8.75;100.00
7836;BME280;3963;42.658;23.298;2023-05-10T10:52:39;59448.81;;;8.86;100.00
7836;BME280;3963;42.658;23.298;2023-05-10T10:55:08;59493.75;;;8.87;100.00
7836;BME280;3963;42.658;23.298;2023-05-10T10:57:46;59505.34;;;8.93;100.00
7836;BME280;3963;42.658;23.298;2023-05-10T11:00:25;59483.19;;;8.94;100.00
7836;BME280;3963;42.658;23.298;2023-05-10T11:02:57;59462.72;;;8.99;100.00
7836;BME280;3963;42.658;23.298;2023-05-10T11:05:36;59507.72;;;9.15;100.00
7836;BME280;3963;42.658;23.298;2023-05-10T11:08:09;59546.59;;;9.32;100.00
7836;BME280;3963;42.658;23.298;2023-05-10T11:10:36;59529.75;;;9.23;100.00
7836;BME280;3963;42.658;23.298;2023-05-10T11:13:04;59501.31;;;9.23;100.00
7836;BME280;3963;42.658;23.298;2023-05-10T11:15:32;59542.59;;;9.35;100.00
7836;BME280;3963;42.658;23.298;2023-05-10T11:18:16;59511.91;;;9.43;100.00
7836;BME280;3963;42.658;23.298;2023-05-10T11:20:44;59521.59;;;9.40;100.00
7836;BME280;3963;42.658;23.298;2023-05-10T11:23:13;59533.69;;;9.59;100.00
7836;BME280;3963;42.658;23.298;2023-05-10T11:25:43;59498.97;;;9.43;100.00
7836;BME280;3963;42.658;23.298;2023-05-10T11:28:10;59504.97;;;9.51;100.00
7836;BME280;3963;42.658;23.298;2023-05-10T11:30:39;59520.81;;;9.47;100.00
7836;BME280;3963;42.658;23.298;2023-05-10T11:33:08;59531.88;;;9.52;100.00
7836;BME280;3963;42.658;23.298;2023-05-10T11:35:39;59508.78;;;9.42;100.00
7836;BME280;3963;42.658;23.298;2023-05-10T11:38:07;59540.22;;;9.40;100.00
7836;BME280;3963;42.658;23.298;2023-05-10T11:40:34;59515.25;;;9.36;100.00
7836;BME280;3963;42.658;23.298;2023-05-10T11:43:01;59477.84;;;9.30;100.00
7836;BME280;3963;42.658;23.298;2023-05-10T11:45:31;59534.72;;;9.45;100.00
7836;BME280;3963;42.658;23.298;2023-05-10T11:47:58;59509.84;;;9.43;100.00
7836;BME280;3963;42.658;23.298;2023-05-10T11:50:27;59538.06;;;9.38;100.00
7836;BME280;3963;42.658;23.298;2023-05-10T11:52:55;59510.09;;;9.36;100.00
7836;BME280;3963;42.658;23.298;2023-05-10T11:55:22;59563.91;;;9.38;100.00
7836;BME280;3963;42.658;23.298;2023-05-10T11:57:51;59475.91;;;9.48;100.00
7836;BME280;3963;42.658;23.298;2023-05-10T12:00:18;59503.34;;;9.50;100.00
7836;BME280;3963;42.658;23.298;2023-05-10T12:02:45;59569.97;;;9.61;100.00
7836;BME280;3963;42.658;23.298;2023-05-10T12:05:12;59512.00;;;9.60;100.00
7836;BME280;3963;42.658;23.298;2023-05-10T12:07:41;59525.53;;;9.49;100.00
7836;BME280;3963;42.658;23.298;2023-05-10T12:10:10;59534.56;;;9.55;100.00
7836;BME280;3963;42.658;23.298;2023-05-10T12:12:40;59541.84;;;9.57;100.00
7836;BME280;3963;42.658;23.298;2023-05-10T12:15:16;59505.31;;;9.47;100.00
7836;BME280;3963;42.658;23.298;2023-05-10T12:17:43;59562.72;;;9.62;100.00
7836;BME280;3963;42.658;23.298;2023-05-10T12:20:14;59561.84;;;9.66;100.00
7836;BME280;3963;42.658;23.298;2023-05-10T12:22:46;59478.94;;;9.61;100.00
7836;BME280;3963;42.658;23.298;2023-05-10T12:25:13;59510.50;;;9.61;100.00
7836;BME280;3963;42.658;23.298;2023-05-10T12:27:39;59556.69;;;9.66;100.00
7836;BME280;3963;42.658;23.298;2023-05-10T12:30:07;59556.13;;;9.65;100.00
7836;BME280;3963;42.658;23.298;2023-05-10T12:32:38;59551.69;;;9.71;100.00
7836;BME280;3963;42.658;23.298;2023-05-10T12:35:06;59539.38;;;9.59;100.00
7836;BME280;3963;42.658;23.298;2023-05-10T12:37:33;59575.75;;;9.64;100.00
7836;BME280;3963;42.658;23.298;2023-05-10T12:40:07;59526.16;;;9.52;100.00
7836;BME280;3963;42.658;23.298;2023-05-10T12:42:35;59515.94;;;9.54;100.00
7836;BME280;3963;42.658;23.298;2023-05-10T12:45:02;59528.50;;;9.59;100.00
7836;BME280;3963;42.658;23.298;2023-05-10T12:47:29;59537.78;;;9.58;100.00
7836;BME280;3963;42.658;23.298;2023-05-10T12:49:56;59564.69;;;9.59;100.00
7836;BME280;3963;42.658;23.298;2023-05-10T12:52:23;59536.88;;;9.62;100.00
7836;BME280;3963;42.658;23.298;2023-05-10T12:54:49;59577.91;;;9.66;100.00
7836;BME280;3963;42.658;23.298;2023-05-10T12:57:18;59548.84;;;9.78;100.00
7836;BME280;3963;42.658;23.298;2023-05-10T12:59:45;59553.16;;;9.82;100.00
7836;BME280;3963;42.658;23.298;2023-05-10T13:02:12;59527.44;;;9.72;100.00
7836;BME280;3963;42.658;23.298;2023-05-10T13:04:39;59504.72;;;9.58;100.00
7836;BME280;3963;42.658;23.298;2023-05-10T13:07:07;59511.56;;;9.62;100.00
7836;BME280;3963;42.658;23.298;2023-05-10T13:09:34;59511.91;;;9.58;100.00
7836;BME280;3963;42.658;23.298;2023-05-10T13:12:01;59528.50;;;9.59;100.00
7836;BME280;3963;42.658;23.298;2023-05-10T13:14:31;59508.34;;;9.59;100.00
7836;BME280;3963;42.658;23.298;2023-05-10T13:16:58;59536.78;;;9.59;100.00